DAL463 KMCO-KLGA
Flight info
| Callsign | DAL463 |
|---|---|
| Flight time | 2h 6m |
| Altitude | 33000 |
| Route | FATHE4 VIYAP Q87 HURTS PROUD2 |
| Aircraft | MD88/M-SDFGIRWY/S |
Departure
| Time | 2026-05-01 12:32 |
|---|---|
| Airport | Orlando International Airport (KMCO) |
Arrival
| Time | 2026-05-01 14:39 |
|---|---|
| Airport | LaGuardia Airport (KLGA) |
| Time | Latitude | Longitude | Altitude | Speed | Heading |
|---|---|---|---|---|---|
| 2026-05-01 11:44 | 28.42887 | -81.30091 | 104 ft | 0 kts | 146° |
| 2026-05-01 12:17 | 28.42894 | -81.30097 | 103 ft | 4 kts | 187° |
| 2026-05-01 12:17 | 28.42919 | -81.30093 | 102 ft | 4 kts | 180° |
| 2026-05-01 12:17 | 28.42944 | -81.30097 | 101 ft | 4 kts | 155° |
| 2026-05-01 12:17 | 28.42959 | -81.30111 | 101 ft | 4 kts | 103° |
| 2026-05-01 12:18 | 28.42959 | -81.30123 | 101 ft | 1 kts | 67° |
| 2026-05-01 12:22 | 28.42970 | -81.30090 | 103 ft | 10 kts | 71° |
| 2026-05-01 12:22 | 28.42976 | -81.30013 | 102 ft | 10 kts | 100° |
| 2026-05-01 12:22 | 28.42946 | -81.29939 | 104 ft | 11 kts | 126° |
| 2026-05-01 12:23 | 28.42914 | -81.29862 | 103 ft | 11 kts | 99° |
| 2026-05-01 12:23 | 28.42912 | -81.29775 | 104 ft | 10 kts | 89° |
| 2026-05-01 12:23 | 28.42937 | -81.29714 | 106 ft | 8 kts | 27° |
| 2026-05-01 12:23 | 28.42994 | -81.29707 | 105 ft | 9 kts | 358° |
| 2026-05-01 12:24 | 28.43062 | -81.29709 | 104 ft | 10 kts | 358° |
| 2026-05-01 12:24 | 28.43136 | -81.29707 | 103 ft | 11 kts | 1° |
| 2026-05-01 12:24 | 28.43208 | -81.29709 | 106 ft | 10 kts | 357° |
| 2026-05-01 12:24 | 28.43272 | -81.29711 | 108 ft | 9 kts | 359° |
| 2026-05-01 12:25 | 28.43334 | -81.29712 | 108 ft | 9 kts | 0° |
| 2026-05-01 12:25 | 28.43478 | -81.29713 | 105 ft | 10 kts | 359° |
| 2026-05-01 12:25 | 28.43486 | -81.29713 | 105 ft | 0 kts | 359° |
| 2026-05-01 12:28 | 28.43491 | -81.29713 | 105 ft | 2 kts | 359° |
| 2026-05-01 12:28 | 28.43508 | -81.29713 | 105 ft | 3 kts | 359° |
| 2026-05-01 12:28 | 28.43552 | -81.29643 | 105 ft | 14 kts | 92° |
| 2026-05-01 12:29 | 28.43538 | -81.29590 | 105 ft | 1 kts | 158° |
| 2026-05-01 12:29 | 28.43518 | -81.29587 | 106 ft | 0 kts | 177° |
| 2026-05-01 12:31 | 28.43506 | -81.29587 | 103 ft | 8 kts | 178° |
| 2026-05-01 12:31 | 28.43331 | -81.29586 | 108 ft | 49 kts | 179° |
| 2026-05-01 12:31 | 28.42789 | -81.29580 | 104 ft | 107 kts | 179° |
| 2026-05-01 12:31 | 28.41860 | -81.29571 | 106 ft | 157 kts | 179° |
| 2026-05-01 12:32 | 28.40662 | -81.29553 | 417 ft | 175 kts | 180° |
| 2026-05-01 12:32 | 28.38195 | -81.29392 | 1700 ft | 187 kts | 161° |
| 2026-05-01 12:32 | 28.36997 | -81.28737 | 2296 ft | 199 kts | 151° |
| 2026-05-01 12:33 | 28.35839 | -81.27838 | 2637 ft | 205 kts | 143° |
| 2026-05-01 12:33 | 28.34776 | -81.26841 | 2904 ft | 191 kts | 137° |
| 2026-05-01 12:33 | 28.33866 | -81.25812 | 3143 ft | 181 kts | 134° |
| 2026-05-01 12:33 | 28.33014 | -81.24787 | 3242 ft | 176 kts | 133° |
| 2026-05-01 12:34 | 28.32155 | -81.23736 | 3384 ft | 190 kts | 133° |
| 2026-05-01 12:34 | 28.31228 | -81.22588 | 3817 ft | 203 kts | 133° |
| 2026-05-01 12:34 | 28.30267 | -81.21373 | 4435 ft | 208 kts | 133° |
| 2026-05-01 12:34 | 28.29278 | -81.20124 | 4927 ft | 220 kts | 133° |
| 2026-05-01 12:35 | 28.28436 | -81.18616 | 5332 ft | 236 kts | 108° |
| 2026-05-01 12:35 | 28.28268 | -81.16736 | 5752 ft | 253 kts | 81° |
| 2026-05-01 12:35 | 28.28866 | -81.14807 | 6199 ft | 268 kts | 56° |
| 2026-05-01 12:35 | 28.30138 | -81.13220 | 6616 ft | 280 kts | 33° |
| 2026-05-01 12:36 | 28.31906 | -81.12220 | 6860 ft | 289 kts | 12° |
| 2026-05-01 12:36 | 28.33887 | -81.11948 | 6957 ft | 286 kts | 357° |
| 2026-05-01 12:36 | 28.35877 | -81.12000 | 6986 ft | 285 kts | 354° |
| 2026-05-01 12:36 | 28.37861 | -81.12106 | 6998 ft | 286 kts | 354° |
| 2026-05-01 12:37 | 28.39844 | -81.12242 | 6999 ft | 286 kts | 353° |
| 2026-05-01 12:37 | 28.41794 | -81.12397 | 6998 ft | 285 kts | 353° |
| 2026-05-01 12:37 | 28.43771 | -81.12573 | 7000 ft | 286 kts | 352° |
| 2026-05-01 12:37 | 28.45749 | -81.12751 | 7002 ft | 285 kts | 352° |
| 2026-05-01 12:38 | 28.47724 | -81.12928 | 7001 ft | 285 kts | 352° |
| 2026-05-01 12:38 | 28.49696 | -81.13107 | 7000 ft | 283 kts | 351° |
| 2026-05-01 12:38 | 28.51573 | -81.13696 | 7005 ft | 279 kts | 332° |
| 2026-05-01 12:38 | 28.53311 | -81.14683 | 7010 ft | 279 kts | 330° |
| 2026-05-01 12:39 | 28.55071 | -81.15681 | 7197 ft | 287 kts | 331° |
| 2026-05-01 12:39 | 28.56843 | -81.16617 | 8012 ft | 282 kts | 332° |
| 2026-05-01 12:39 | 28.58618 | -81.17511 | 8801 ft | 280 kts | 332° |
| 2026-05-01 12:39 | 28.60418 | -81.18385 | 9468 ft | 282 kts | 333° |
| 2026-05-01 12:40 | 28.62239 | -81.19237 | 10107 ft | 284 kts | 333° |
| 2026-05-01 12:40 | 28.64129 | -81.20103 | 10353 ft | 303 kts | 333° |
| 2026-05-01 12:40 | 28.66151 | -81.21019 | 10534 ft | 322 kts | 334° |
| 2026-05-01 12:40 | 28.68300 | -81.21977 | 10700 ft | 341 kts | 334° |
| 2026-05-01 12:41 | 28.70569 | -81.22974 | 10910 ft | 357 kts | 335° |
| 2026-05-01 12:41 | 28.72878 | -81.23978 | 11463 ft | 361 kts | 335° |
| 2026-05-01 12:41 | 28.75226 | -81.24991 | 12233 ft | 360 kts | 334° |
| 2026-05-01 12:41 | 28.77566 | -81.26001 | 13026 ft | 359 kts | 334° |
| 2026-05-01 12:42 | 28.79908 | -81.27020 | 13745 ft | 362 kts | 333° |
| 2026-05-01 12:42 | 28.82259 | -81.28055 | 14401 ft | 364 kts | 333° |
| 2026-05-01 12:42 | 28.84689 | -81.28969 | 14956 ft | 375 kts | 344° |
| 2026-05-01 12:42 | 28.87309 | -81.29322 | 15533 ft | 383 kts | 350° |
| 2026-05-01 12:43 | 28.89979 | -81.29507 | 16129 ft | 387 kts | 351° |
| 2026-05-01 12:43 | 28.92642 | -81.29674 | 16721 ft | 390 kts | 351° |
| 2026-05-01 12:43 | 28.95364 | -81.29848 | 17285 ft | 394 kts | 351° |
| 2026-05-01 12:43 | 28.98115 | -81.30035 | 17831 ft | 398 kts | 351° |
| 2026-05-01 12:44 | 29.00887 | -81.30255 | 18365 ft | 401 kts | 350° |
| 2026-05-01 12:44 | 29.03671 | -81.30536 | 18855 ft | 402 kts | 349° |
| 2026-05-01 12:44 | 29.09287 | -81.31186 | 19766 ft | 409 kts | 349° |
| 2026-05-01 12:45 | 29.15019 | -81.31704 | 20633 ft | 418 kts | 351° |
| 2026-05-01 12:45 | 29.17934 | -81.31875 | 21046 ft | 421 kts | 352° |
| 2026-05-01 12:45 | 29.20833 | -81.32028 | 21474 ft | 424 kts | 352° |
| 2026-05-01 12:46 | 29.23793 | -81.32183 | 21898 ft | 427 kts | 352° |
| 2026-05-01 12:46 | 29.26773 | -81.32345 | 22244 ft | 431 kts | 352° |
| 2026-05-01 12:46 | 29.29775 | -81.32517 | 22645 ft | 433 kts | 351° |
| 2026-05-01 12:46 | 29.32794 | -81.32697 | 23039 ft | 436 kts | 351° |
| 2026-05-01 12:47 | 29.35838 | -81.32883 | 23410 ft | 439 kts | 351° |
| 2026-05-01 12:47 | 29.38898 | -81.33072 | 23744 ft | 442 kts | 351° |
| 2026-05-01 12:47 | 29.41981 | -81.33262 | 24081 ft | 444 kts | 351° |
| 2026-05-01 12:47 | 29.45026 | -81.33449 | 24461 ft | 445 kts | 351° |
| 2026-05-01 12:48 | 29.48125 | -81.33639 | 24751 ft | 448 kts | 351° |
| 2026-05-01 12:48 | 29.51247 | -81.33829 | 25077 ft | 450 kts | 351° |
| 2026-05-01 12:48 | 29.54381 | -81.34019 | 25425 ft | 452 kts | 351° |
| 2026-05-01 12:48 | 29.57525 | -81.34210 | 25761 ft | 453 kts | 351° |
| 2026-05-01 12:49 | 29.60683 | -81.34401 | 26077 ft | 456 kts | 351° |
| 2026-05-01 12:49 | 29.63853 | -81.34594 | 26392 ft | 458 kts | 351° |
| 2026-05-01 12:49 | 29.67037 | -81.34780 | 26797 ft | 457 kts | 351° |
| 2026-05-01 12:49 | 29.70200 | -81.34959 | 27282 ft | 454 kts | 351° |
| 2026-05-01 12:50 | 29.73307 | -81.35135 | 27759 ft | 452 kts | 351° |
| 2026-05-01 12:50 | 29.76436 | -81.35312 | 28262 ft | 449 kts | 351° |
| 2026-05-01 12:50 | 29.79552 | -81.35490 | 28720 ft | 447 kts | 350° |
| 2026-05-01 12:50 | 29.82654 | -81.35668 | 29157 ft | 446 kts | 350° |
| 2026-05-01 12:51 | 29.85748 | -81.35847 | 29559 ft | 445 kts | 350° |
| 2026-05-01 12:51 | 29.88834 | -81.36027 | 29998 ft | 443 kts | 350° |
| 2026-05-01 12:51 | 29.94916 | -81.36378 | 30745 ft | 438 kts | 350° |
| 2026-05-01 12:52 | 29.97954 | -81.36553 | 31071 ft | 437 kts | 349° |
| 2026-05-01 12:52 | 30.04011 | -81.36904 | 31729 ft | 434 kts | 349° |
| 2026-05-01 12:52 | 30.07019 | -81.37077 | 32085 ft | 431 kts | 349° |
| 2026-05-01 12:53 | 30.12988 | -81.37422 | 32697 ft | 429 kts | 349° |
| 2026-05-01 12:53 | 30.15973 | -81.37598 | 32832 ft | 431 kts | 349° |
| 2026-05-01 12:54 | 30.21928 | -81.37948 | 32919 ft | 431 kts | 349° |
| 2026-05-01 12:54 | 30.30858 | -81.38461 | 32948 ft | 426 kts | 348° |
| 2026-05-01 12:55 | 30.39693 | -81.38975 | 32947 ft | 423 kts | 348° |
| 2026-05-01 12:56 | 30.45582 | -81.39322 | 32943 ft | 424 kts | 348° |
| 2026-05-01 12:56 | 30.51452 | -81.39645 | 32972 ft | 426 kts | 348° |
| 2026-05-01 12:57 | 30.57382 | -81.39952 | 32972 ft | 426 kts | 348° |
| 2026-05-01 12:57 | 30.66244 | -81.40412 | 32971 ft | 424 kts | 348° |
| 2026-05-01 12:58 | 30.72084 | -81.40721 | 32970 ft | 423 kts | 348° |
| 2026-05-01 12:59 | 30.80903 | -81.41194 | 32960 ft | 424 kts | 348° |
| 2026-05-01 12:59 | 30.89749 | -81.41666 | 32945 ft | 425 kts | 348° |
| 2026-05-01 13:00 | 30.98582 | -81.42135 | 32951 ft | 425 kts | 348° |
| 2026-05-01 13:01 | 31.07427 | -81.42604 | 32957 ft | 423 kts | 348° |
| 2026-05-01 13:02 | 31.16242 | -81.43074 | 32959 ft | 422 kts | 348° |
| 2026-05-01 13:07 | 31.77126 | -81.15299 | 32919 ft | 460 kts | 15° |
| 2026-05-01 13:07 | 31.80026 | -81.13713 | 32916 ft | 460 kts | 14° |
| 2026-05-01 13:08 | 31.85827 | -81.10539 | 32914 ft | 460 kts | 14° |
| 2026-05-01 13:08 | 31.91629 | -81.07362 | 32918 ft | 460 kts | 14° |
| 2026-05-01 13:09 | 31.97395 | -81.04196 | 32920 ft | 460 kts | 14° |
| 2026-05-01 13:09 | 32.03185 | -81.00997 | 32920 ft | 459 kts | 14° |
| 2026-05-01 13:10 | 32.08954 | -80.97761 | 32934 ft | 459 kts | 14° |
| 2026-05-01 13:10 | 32.14708 | -80.94529 | 32942 ft | 458 kts | 14° |
| 2026-05-01 13:11 | 32.20433 | -80.91323 | 32993 ft | 459 kts | 14° |
| 2026-05-01 13:11 | 32.26207 | -80.88090 | 32976 ft | 459 kts | 14° |
| 2026-05-01 13:12 | 32.31973 | -80.84850 | 32977 ft | 458 kts | 14° |
| 2026-05-01 13:12 | 32.37725 | -80.81613 | 32975 ft | 457 kts | 14° |
| 2026-05-01 13:13 | 32.43426 | -80.78397 | 32994 ft | 457 kts | 14° |
| 2026-05-01 13:13 | 32.49173 | -80.75151 | 32976 ft | 457 kts | 14° |
| 2026-05-01 13:14 | 32.54921 | -80.71902 | 32982 ft | 457 kts | 14° |
| 2026-05-01 13:14 | 32.60665 | -80.68654 | 32977 ft | 457 kts | 13° |
| 2026-05-01 13:15 | 32.66371 | -80.65421 | 32978 ft | 457 kts | 13° |
| 2026-05-01 13:15 | 32.72113 | -80.62155 | 32987 ft | 458 kts | 14° |
| 2026-05-01 13:16 | 32.77833 | -80.58764 | 32998 ft | 460 kts | 15° |
| 2026-05-01 13:16 | 32.83541 | -80.55335 | 33002 ft | 460 kts | 15° |
| 2026-05-01 13:17 | 32.94952 | -80.48537 | 33005 ft | 460 kts | 14° |
| 2026-05-01 13:18 | 33.03524 | -80.43432 | 32992 ft | 458 kts | 14° |
| 2026-05-01 13:18 | 33.09225 | -80.40029 | 32992 ft | 458 kts | 14° |
| 2026-05-01 13:19 | 33.14894 | -80.36633 | 32994 ft | 460 kts | 14° |
| 2026-05-01 13:20 | 33.23499 | -80.31469 | 32992 ft | 462 kts | 14° |
| 2026-05-01 13:20 | 33.29250 | -80.28015 | 32988 ft | 463 kts | 14° |
| 2026-05-01 13:21 | 33.37826 | -80.22853 | 33012 ft | 462 kts | 14° |
| 2026-05-01 13:21 | 33.43561 | -80.19399 | 33020 ft | 462 kts | 14° |
| 2026-05-01 13:22 | 33.49315 | -80.15932 | 33029 ft | 464 kts | 14° |
| 2026-05-01 13:22 | 33.55089 | -80.12447 | 33034 ft | 466 kts | 14° |
| 2026-05-01 13:23 | 33.60847 | -80.08959 | 33032 ft | 467 kts | 14° |
| 2026-05-01 13:23 | 33.66637 | -80.05442 | 33024 ft | 466 kts | 14° |
| 2026-05-01 13:24 | 33.72410 | -80.01908 | 33026 ft | 466 kts | 14° |
| 2026-05-01 13:25 | 33.81073 | -79.96628 | 33034 ft | 466 kts | 14° |
| 2026-05-01 13:25 | 33.86824 | -79.93131 | 33035 ft | 467 kts | 14° |
| 2026-05-01 13:26 | 33.92630 | -79.89593 | 33029 ft | 468 kts | 14° |
| 2026-05-01 13:26 | 33.98439 | -79.86044 | 33032 ft | 469 kts | 14° |
| 2026-05-01 13:27 | 34.04261 | -79.82480 | 33037 ft | 469 kts | 14° |
| 2026-05-01 13:27 | 34.12942 | -79.77147 | 33041 ft | 468 kts | 14° |
| 2026-05-01 13:28 | 34.21640 | -79.71785 | 33043 ft | 467 kts | 14° |
| 2026-05-01 13:29 | 34.33198 | -79.64659 | 33038 ft | 469 kts | 13° |
| 2026-05-01 13:31 | 34.50649 | -79.53854 | 33054 ft | 470 kts | 13° |
| 2026-05-01 13:32 | 34.65069 | -79.44418 | 33099 ft | 474 kts | 16° |
| 2026-05-01 13:33 | 34.79400 | -79.34684 | 33121 ft | 471 kts | 15° |
| 2026-05-01 13:34 | 34.90821 | -79.26959 | 33102 ft | 472 kts | 15° |
| 2026-05-01 13:35 | 34.99422 | -79.21113 | 33082 ft | 472 kts | 15° |
| 2026-05-01 13:36 | 35.07992 | -79.15271 | 33074 ft | 472 kts | 15° |
| 2026-05-01 13:36 | 35.16575 | -79.09391 | 33077 ft | 471 kts | 15° |
| 2026-05-01 13:37 | 35.21323 | -79.06137 | 33080 ft | 470 kts | 15° |
| 2026-05-01 13:37 | 35.27998 | -79.01564 | 33081 ft | 470 kts | 15° |
| 2026-05-01 13:38 | 35.36506 | -78.95727 | 33103 ft | 470 kts | 15° |
| 2026-05-01 13:39 | 35.42209 | -78.91803 | 33104 ft | 470 kts | 15° |
| 2026-05-01 13:39 | 35.47912 | -78.87849 | 33109 ft | 471 kts | 15° |
| 2026-05-01 13:40 | 35.53578 | -78.83918 | 33102 ft | 471 kts | 15° |
| 2026-05-01 13:40 | 35.59296 | -78.79963 | 33098 ft | 472 kts | 15° |
| 2026-05-01 13:41 | 35.65014 | -78.75997 | 33089 ft | 472 kts | 15° |
| 2026-05-01 13:41 | 35.70747 | -78.72018 | 33106 ft | 474 kts | 15° |
| 2026-05-01 13:42 | 35.76453 | -78.68057 | 33096 ft | 475 kts | 15° |
| 2026-05-01 13:42 | 35.82198 | -78.64050 | 33084 ft | 474 kts | 14° |
| 2026-05-01 13:43 | 35.87927 | -78.60052 | 33089 ft | 473 kts | 14° |
| 2026-05-01 13:43 | 35.93666 | -78.56045 | 33091 ft | 474 kts | 14° |
| 2026-05-01 13:44 | 35.99421 | -78.52022 | 33114 ft | 476 kts | 14° |
| 2026-05-01 13:44 | 36.05155 | -78.47987 | 33111 ft | 478 kts | 14° |
| 2026-05-01 13:45 | 36.10935 | -78.43915 | 33115 ft | 478 kts | 14° |
| 2026-05-01 13:45 | 36.16711 | -78.39847 | 33110 ft | 477 kts | 14° |
| 2026-05-01 13:46 | 36.22435 | -78.35815 | 33098 ft | 477 kts | 14° |
| 2026-05-01 13:46 | 36.28198 | -78.31751 | 33093 ft | 476 kts | 14° |
| 2026-05-01 13:47 | 36.33951 | -78.27688 | 33087 ft | 476 kts | 14° |
| 2026-05-01 13:47 | 36.39574 | -78.23136 | 33094 ft | 501 kts | 28° |
| 2026-05-01 13:48 | 36.44669 | -78.17070 | 33110 ft | 510 kts | 32° |
| 2026-05-01 13:48 | 36.49685 | -78.10920 | 33122 ft | 509 kts | 31° |
| 2026-05-01 13:49 | 36.54779 | -78.04850 | 33128 ft | 506 kts | 30° |
| 2026-05-01 13:49 | 36.59029 | -77.99873 | 33138 ft | 504 kts | 29° |
| 2026-05-01 13:50 | 36.64129 | -77.93901 | 33140 ft | 504 kts | 30° |
| 2026-05-01 13:50 | 36.70045 | -77.86927 | 33097 ft | 504 kts | 30° |
| 2026-05-01 13:51 | 36.75127 | -77.80894 | 33098 ft | 505 kts | 30° |
| 2026-05-01 13:51 | 36.79357 | -77.75869 | 33095 ft | 506 kts | 30° |
| 2026-05-01 13:52 | 36.84448 | -77.69788 | 33093 ft | 507 kts | 30° |
| 2026-05-01 13:52 | 36.90379 | -77.62715 | 33088 ft | 507 kts | 30° |
| 2026-05-01 13:53 | 36.94658 | -77.57612 | 33086 ft | 508 kts | 30° |
| 2026-05-01 13:53 | 37.02297 | -77.48483 | 33093 ft | 508 kts | 30° |
| 2026-05-01 13:54 | 37.07401 | -77.42370 | 33096 ft | 508 kts | 30° |
| 2026-05-01 13:54 | 37.12497 | -77.36249 | 33096 ft | 508 kts | 30° |
| 2026-05-01 13:55 | 37.17552 | -77.30141 | 33103 ft | 508 kts | 30° |
| 2026-05-01 13:55 | 37.22645 | -77.23996 | 33103 ft | 509 kts | 30° |
| 2026-05-01 13:56 | 37.27751 | -77.17832 | 33098 ft | 510 kts | 30° |
| 2026-05-01 13:56 | 37.32862 | -77.11653 | 33091 ft | 511 kts | 30° |
| 2026-05-01 13:57 | 37.37983 | -77.05449 | 33090 ft | 511 kts | 31° |
| 2026-05-01 13:57 | 37.43062 | -76.99280 | 33093 ft | 510 kts | 31° |
| 2026-05-01 13:58 | 37.48408 | -76.93758 | 33105 ft | 478 kts | 14° |
| 2026-05-01 13:58 | 37.54234 | -76.89941 | 33111 ft | 470 kts | 10° |
| 2026-05-01 13:59 | 37.60063 | -76.86273 | 33095 ft | 473 kts | 11° |
| 2026-05-01 13:59 | 37.65936 | -76.82439 | 33103 ft | 477 kts | 12° |
| 2026-05-01 14:00 | 37.71804 | -76.78499 | 33094 ft | 478 kts | 13° |
| 2026-05-01 14:00 | 37.77655 | -76.74551 | 33093 ft | 476 kts | 12° |
| 2026-05-01 14:01 | 37.83502 | -76.70625 | 33092 ft | 475 kts | 12° |
| 2026-05-01 14:01 | 37.89296 | -76.66763 | 33088 ft | 473 kts | 11° |
| 2026-05-01 14:02 | 37.95171 | -76.63034 | 33092 ft | 472 kts | 11° |
| 2026-05-01 14:02 | 38.01065 | -76.59352 | 33084 ft | 473 kts | 11° |
| 2026-05-01 14:03 | 38.06967 | -76.55625 | 33081 ft | 475 kts | 11° |
| 2026-05-01 14:03 | 38.12829 | -76.51885 | 33085 ft | 475 kts | 12° |
| 2026-05-01 14:04 | 38.18734 | -76.48109 | 33078 ft | 474 kts | 12° |
| 2026-05-01 14:04 | 38.24620 | -76.44347 | 33080 ft | 473 kts | 12° |
| 2026-05-01 14:05 | 38.30452 | -76.40375 | 33081 ft | 487 kts | 21° |
| 2026-05-01 14:05 | 38.35869 | -76.35110 | 33083 ft | 496 kts | 26° |
| 2026-05-01 14:06 | 38.41255 | -76.29613 | 33076 ft | 495 kts | 26° |
| 2026-05-01 14:06 | 38.46675 | -76.24231 | 33070 ft | 493 kts | 25° |
| 2026-05-01 14:07 | 38.52123 | -76.18923 | 33071 ft | 492 kts | 25° |
| 2026-05-01 14:08 | 38.60254 | -76.10984 | 33068 ft | 492 kts | 25° |
| 2026-05-01 14:08 | 38.65700 | -76.05695 | 33071 ft | 490 kts | 24° |
| 2026-05-01 14:09 | 38.71245 | -76.00543 | 32568 ft | 500 kts | 24° |
| 2026-05-01 14:09 | 38.74084 | -75.97934 | 32039 ft | 503 kts | 24° |
| 2026-05-01 14:09 | 38.76914 | -75.95308 | 31431 ft | 503 kts | 24° |
| 2026-05-01 14:09 | 38.79744 | -75.92663 | 30755 ft | 503 kts | 24° |
| 2026-05-01 14:10 | 38.82534 | -75.90045 | 30032 ft | 505 kts | 24° |
| 2026-05-01 14:10 | 38.85375 | -75.87384 | 29203 ft | 506 kts | 25° |
| 2026-05-01 14:10 | 38.88204 | -75.84733 | 28457 ft | 501 kts | 25° |
| 2026-05-01 14:10 | 38.91002 | -75.82105 | 27767 ft | 496 kts | 26° |
| 2026-05-01 14:11 | 38.93761 | -75.79508 | 27115 ft | 490 kts | 26° |
| 2026-05-01 14:11 | 38.99103 | -75.74427 | 26623 ft | 460 kts | 27° |
| 2026-05-01 14:11 | 39.01589 | -75.72043 | 26540 ft | 446 kts | 27° |
| 2026-05-01 14:12 | 39.04083 | -75.69675 | 26460 ft | 448 kts | 26° |
| 2026-05-01 14:12 | 39.06641 | -75.67282 | 26399 ft | 462 kts | 26° |
| 2026-05-01 14:12 | 39.09280 | -75.64825 | 26345 ft | 475 kts | 27° |
| 2026-05-01 14:12 | 39.11963 | -75.62305 | 26284 ft | 480 kts | 27° |
| 2026-05-01 14:13 | 39.14648 | -75.59751 | 26207 ft | 477 kts | 28° |
| 2026-05-01 14:13 | 39.17295 | -75.57213 | 26141 ft | 472 kts | 28° |
| 2026-05-01 14:13 | 39.19926 | -75.54691 | 26066 ft | 470 kts | 28° |
| 2026-05-01 14:13 | 39.22545 | -75.52186 | 25992 ft | 468 kts | 28° |
| 2026-05-01 14:14 | 39.25142 | -75.49757 | 25915 ft | 466 kts | 27° |
| 2026-05-01 14:14 | 39.27803 | -75.47373 | 25849 ft | 465 kts | 26° |
| 2026-05-01 14:14 | 39.30480 | -75.45031 | 25779 ft | 464 kts | 26° |
| 2026-05-01 14:14 | 39.33156 | -75.42703 | 25704 ft | 464 kts | 26° |
| 2026-05-01 14:15 | 39.35841 | -75.40360 | 25448 ft | 466 kts | 26° |
| 2026-05-01 14:15 | 39.38515 | -75.38010 | 25026 ft | 463 kts | 27° |
| 2026-05-01 14:15 | 39.41155 | -75.35673 | 24511 ft | 457 kts | 27° |
| 2026-05-01 14:15 | 39.43762 | -75.33353 | 23928 ft | 453 kts | 28° |
| 2026-05-01 14:16 | 39.46318 | -75.31074 | 23232 ft | 451 kts | 28° |
| 2026-05-01 14:16 | 39.48893 | -75.28769 | 22479 ft | 449 kts | 29° |
| 2026-05-01 14:16 | 39.51445 | -75.26468 | 21795 ft | 445 kts | 29° |
| 2026-05-01 14:16 | 39.53924 | -75.24163 | 21634 ft | 430 kts | 30° |
| 2026-05-01 14:17 | 39.56289 | -75.21915 | 21549 ft | 414 kts | 30° |
| 2026-05-01 14:17 | 39.58566 | -75.19743 | 21460 ft | 401 kts | 30° |
| 2026-05-01 14:17 | 39.60822 | -75.17607 | 21376 ft | 407 kts | 29° |
| 2026-05-01 14:17 | 39.63171 | -75.15417 | 21318 ft | 425 kts | 30° |
| 2026-05-01 14:18 | 39.65567 | -75.13186 | 21262 ft | 432 kts | 30° |
| 2026-05-01 14:18 | 39.67997 | -75.10917 | 21195 ft | 429 kts | 29° |
| 2026-05-01 14:18 | 39.70453 | -75.08714 | 20761 ft | 430 kts | 27° |
| 2026-05-01 14:18 | 39.72100 | -75.07288 | 20387 ft | 427 kts | 27° |
| 2026-05-01 14:19 | 39.75404 | -75.04475 | 19577 ft | 423 kts | 27° |
| 2026-05-01 14:19 | 39.77862 | -75.02394 | 18945 ft | 421 kts | 27° |
| 2026-05-01 14:19 | 39.80313 | -75.00313 | 18277 ft | 420 kts | 27° |
| 2026-05-01 14:19 | 39.82750 | -74.98236 | 17552 ft | 418 kts | 27° |
| 2026-05-01 14:20 | 39.85136 | -74.96187 | 16906 ft | 415 kts | 28° |
| 2026-05-01 14:20 | 39.89804 | -74.91992 | 16045 ft | 400 kts | 29° |
| 2026-05-01 14:20 | 39.92043 | -74.89905 | 15634 ft | 394 kts | 33° |
| 2026-05-01 14:21 | 39.94047 | -74.87460 | 15097 ft | 396 kts | 41° |
| 2026-05-01 14:21 | 39.95897 | -74.84790 | 14507 ft | 396 kts | 44° |
| 2026-05-01 14:21 | 39.97703 | -74.82093 | 13907 ft | 395 kts | 44° |
| 2026-05-01 14:22 | 40.01293 | -74.76770 | 12602 ft | 391 kts | 44° |
| 2026-05-01 14:22 | 40.03094 | -74.74130 | 11962 ft | 385 kts | 44° |
| 2026-05-01 14:22 | 40.04812 | -74.71611 | 11250 ft | 361 kts | 43° |
| 2026-05-01 14:22 | 40.06442 | -74.69239 | 10596 ft | 340 kts | 43° |
| 2026-05-01 14:23 | 40.07994 | -74.67002 | 10304 ft | 327 kts | 42° |
| 2026-05-01 14:23 | 40.09503 | -74.64845 | 10164 ft | 315 kts | 42° |
| 2026-05-01 14:23 | 40.10946 | -74.62774 | 10091 ft | 302 kts | 42° |
| 2026-05-01 14:23 | 40.12331 | -74.60792 | 10050 ft | 289 kts | 41° |
| 2026-05-01 14:24 | 40.13654 | -74.58897 | 10032 ft | 277 kts | 41° |
| 2026-05-01 14:24 | 40.14935 | -74.57069 | 10020 ft | 271 kts | 41° |
| 2026-05-01 14:24 | 40.16217 | -74.55251 | 10032 ft | 273 kts | 41° |
| 2026-05-01 14:24 | 40.17489 | -74.53439 | 10038 ft | 275 kts | 41° |
| 2026-05-01 14:25 | 40.18777 | -74.51597 | 10039 ft | 276 kts | 41° |
| 2026-05-01 14:25 | 40.20069 | -74.49743 | 10038 ft | 275 kts | 41° |
| 2026-05-01 14:25 | 40.21384 | -74.47942 | 10037 ft | 273 kts | 38° |
| 2026-05-01 14:25 | 40.22744 | -74.46208 | 10038 ft | 274 kts | 37° |
| 2026-05-01 14:26 | 40.24131 | -74.44492 | 9937 ft | 274 kts | 37° |
| 2026-05-01 14:26 | 40.26886 | -74.41086 | 9693 ft | 271 kts | 37° |
| 2026-05-01 14:26 | 40.28231 | -74.39412 | 9562 ft | 270 kts | 37° |
| 2026-05-01 14:27 | 40.29596 | -74.37711 | 9356 ft | 272 kts | 37° |
| 2026-05-01 14:27 | 40.30981 | -74.35981 | 9100 ft | 282 kts | 38° |
| 2026-05-01 14:27 | 40.32384 | -74.34211 | 9921 ft | 276 kts | 37° |
| 2026-05-01 14:28 | 40.35271 | -74.30559 | 9219 ft | 283 kts | 38° |
| 2026-05-01 14:28 | 40.36653 | -74.28800 | 8631 ft | 273 kts | 38° |
| 2026-05-01 14:28 | 40.37994 | -74.27094 | 8122 ft | 266 kts | 38° |
| 2026-05-01 14:28 | 40.39298 | -74.25442 | 7608 ft | 263 kts | 39° |
| 2026-05-01 14:29 | 40.40606 | -74.23778 | 7111 ft | 262 kts | 39° |
| 2026-05-01 14:29 | 40.41915 | -74.22120 | 6631 ft | 261 kts | 39° |
| 2026-05-01 14:30 | 40.45783 | -74.17195 | 5195 ft | 253 kts | 41° |
| 2026-05-01 14:30 | 40.47026 | -74.15602 | 4668 ft | 246 kts | 41° |
| 2026-05-01 14:30 | 40.48240 | -74.14052 | 4124 ft | 241 kts | 41° |
| 2026-05-01 14:31 | 40.50619 | -74.11027 | 3285 ft | 239 kts | 42° |
| 2026-05-01 14:31 | 40.51790 | -74.09547 | 3070 ft | 228 kts | 38° |
| 2026-05-01 14:31 | 40.53059 | -74.08298 | 3039 ft | 229 kts | 31° |
| 2026-05-01 14:31 | 40.54408 | -74.07144 | 3056 ft | 228 kts | 30° |
| 2026-05-01 14:32 | 40.55699 | -74.06059 | 3036 ft | 214 kts | 31° |
| 2026-05-01 14:32 | 40.56921 | -74.05033 | 3012 ft | 203 kts | 30° |
| 2026-05-01 14:32 | 40.58073 | -74.04074 | 3016 ft | 189 kts | 30° |
| 2026-05-01 14:32 | 40.59146 | -74.03184 | 2997 ft | 182 kts | 30° |
| 2026-05-01 14:33 | 40.60207 | -74.02301 | 3002 ft | 180 kts | 30° |
| 2026-05-01 14:33 | 40.61261 | -74.01414 | 3050 ft | 181 kts | 30° |
| 2026-05-01 14:33 | 40.62312 | -74.00532 | 3142 ft | 174 kts | 30° |
| 2026-05-01 14:33 | 40.63363 | -73.99663 | 3077 ft | 178 kts | 30° |
| 2026-05-01 14:34 | 40.64415 | -73.98788 | 3077 ft | 179 kts | 30° |
| 2026-05-01 14:34 | 40.65466 | -73.97902 | 3037 ft | 179 kts | 30° |
| 2026-05-01 14:34 | 40.66517 | -73.97006 | 3024 ft | 180 kts | 31° |
| 2026-05-01 14:34 | 40.67557 | -73.96107 | 2886 ft | 183 kts | 31° |
| 2026-05-01 14:35 | 40.68586 | -73.95194 | 2729 ft | 172 kts | 32° |
| 2026-05-01 14:35 | 40.69515 | -73.94364 | 2611 ft | 152 kts | 33° |
| 2026-05-01 14:35 | 40.70306 | -73.93425 | 2465 ft | 156 kts | 43° |
| 2026-05-01 14:35 | 40.71048 | -73.92380 | 2404 ft | 156 kts | 44° |
| 2026-05-01 14:36 | 40.71762 | -73.91293 | 2330 ft | 157 kts | 51° |
| 2026-05-01 14:36 | 40.72209 | -73.89962 | 2193 ft | 155 kts | 70° |
| 2026-05-01 14:36 | 40.72480 | -73.88649 | 1936 ft | 145 kts | 73° |
| 2026-05-01 14:36 | 40.72710 | -73.87356 | 1753 ft | 145 kts | 71° |
| 2026-05-01 14:37 | 40.73000 | -73.86076 | 1505 ft | 145 kts | 68° |
| 2026-05-01 14:37 | 40.73386 | -73.84880 | 1288 ft | 141 kts | 56° |
| 2026-05-01 14:37 | 40.74002 | -73.83914 | 1068 ft | 137 kts | 32° |
| 2026-05-01 14:37 | 40.74855 | -73.83525 | 951 ft | 133 kts | 355° |
| 2026-05-01 14:38 | 40.75771 | -73.83769 | 664 ft | 136 kts | 340° |
| 2026-05-01 14:38 | 40.76587 | -73.84479 | 367 ft | 141 kts | 310° |
| 2026-05-01 14:38 | 40.77122 | -73.85532 | 91 ft | 142 kts | 302° |
| 2026-05-01 14:38 | 40.77607 | -73.86551 | 17 ft | 114 kts | 302° |
| 2026-05-01 14:39 | 40.77889 | -73.87141 | 19 ft | 48 kts | 302° |
| 2026-05-01 14:39 | 40.78008 | -73.87390 | 18 ft | 19 kts | 301° |
| 2026-05-01 14:39 | 40.78060 | -73.87535 | 18 ft | 16 kts | 271° |
| 2026-05-01 14:39 | 40.78031 | -73.87628 | 21 ft | 1 kts | 194° |
| 2026-05-01 14:40 | 40.77992 | -73.87588 | 19 ft | 16 kts | 122° |
| 2026-05-01 14:40 | 40.77929 | -73.87454 | 19 ft | 18 kts | 122° |
| 2026-05-01 14:40 | 40.77862 | -73.87312 | 20 ft | 19 kts | 122° |
| 2026-05-01 14:40 | 40.77791 | -73.87163 | 18 ft | 20 kts | 122° |
| 2026-05-01 14:41 | 40.77716 | -73.87008 | 18 ft | 21 kts | 123° |
| 2026-05-01 14:41 | 40.77638 | -73.86847 | 18 ft | 22 kts | 122° |
| 2026-05-01 14:41 | 40.77557 | -73.86675 | 18 ft | 22 kts | 122° |
| 2026-05-01 14:41 | 40.77472 | -73.86500 | 19 ft | 23 kts | 122° |
| 2026-05-01 14:42 | 40.77387 | -73.86319 | 18 ft | 23 kts | 123° |
| 2026-05-01 14:42 | 40.77298 | -73.86136 | 18 ft | 24 kts | 121° |
| 2026-05-01 14:42 | 40.77230 | -73.85991 | 18 ft | 12 kts | 122° |
| 2026-05-01 14:42 | 40.77197 | -73.85929 | 19 ft | 5 kts | 141° |
| 2026-05-01 14:43 | 40.77158 | -73.85930 | 18 ft | 8 kts | 193° |
| 2026-05-01 14:43 | 40.77124 | -73.85922 | 19 ft | 5 kts | 146° |
| 2026-05-01 14:43 | 40.77064 | -73.85902 | 18 ft | 9 kts | 187° |
| 2026-05-01 14:43 | 40.77004 | -73.85881 | 19 ft | 9 kts | 166° |
| 2026-05-01 14:44 | 40.76937 | -73.85894 | 18 ft | 10 kts | 206° |
| 2026-05-01 14:44 | 40.76880 | -73.85993 | 18 ft | 5 kts | 292° |
| 2026-05-01 14:44 | 40.76898 | -73.86026 | 19 ft | 4 kts | 311° |
| 2026-05-01 14:45 | 40.76908 | -73.86040 | 18 ft | 1 kts | 312° |
| 2026-05-01 14:45 | 40.76910 | -73.86044 | 18 ft | 1 kts | 312° |
| 2026-05-01 14:45 | 40.76911 | -73.86045 | 18 ft | 0 kts | 312° |
| 2026-05-01 15:08 | 40.76910 | -73.86044 | 18 ft | 0 kts | 306° |
| 2026-05-01 15:10 | 40.76908 | -73.86040 | 18 ft | 0 kts | 312° |